»·PEaware :: N17MA KSNA-KCRQ

N17MA :: KSNA-KCRQ

FLIGHT INFORMATION

Flight Status: Arrived
Operator: Privately registered:
United States
More flights under this callsign
Pilot: Diego M. (28112)
Aircraft: CESSNA 172 SKYHAWK
(C172)
More flights by this aircraft type
Origin: KSNA John Wayne-Orange Co
United States
Destination: KCRQ McClellan-Palomar
United States
More flights between these airports :: More routes between these airports
Route: +V23 OCN
File this flight plan on PilotEdge
Remarks:
Altitude:
(Current/Filed)
5,000ft
Speed:
(Current/Filed)
120kts
Departed: 09-May-20 11:28 AM
Arrived: 09-May-20 12:07 PM
Distance/Time
Traveled:
0nm/0:39
Distance/Time
To Go:
Arrived

Flight Plot

Page will automatically refresh every two minutes.


Map Options




Map Legend


Flown Route
Filed Route
Departure Airport
Arrival Airport
Navaid (VOR, NDB)
Fix

Horizontal Profiles

Position Reports

Time Latitude Longitude Heading Altitude Ground
Speed
09-May-20 11:06 33.676080 -117.870909 219 60ft 0kts
09-May-20 11:07 33.676080 -117.870909 219 60ft 0kts
09-May-20 11:08 33.676080 -117.870909 219 60ft 0kts
09-May-20 11:09 33.676080 -117.870909 219 60ft 0kts
09-May-20 11:10 33.676080 -117.870909 219 60ft 0kts
09-May-20 11:11 33.676080 -117.870909 219 60ft 0kts
09-May-20 11:12 33.676080 -117.870909 219 60ft 0kts
09-May-20 11:13 33.676080 -117.870909 219 60ft 0kts
09-May-20 11:14 33.676080 -117.870909 219 60ft 0kts
09-May-20 11:15 33.676080 -117.870909 219 60ft 0kts
09-May-20 11:16 33.676080 -117.870909 219 60ft 0kts
09-May-20 11:17 33.676080 -117.870909 219 60ft 0kts
09-May-20 11:18 33.676080 -117.870909 219 60ft 0kts
09-May-20 11:19 33.676080 -117.870909 219 60ft 0kts
09-May-20 11:20 33.676058 -117.870930 218 60ft 1kts
09-May-20 11:21 33.675684 -117.870437 97 60ft 3kts
09-May-20 11:22 33.678628 -117.868462 28 60ft 15kts
09-May-20 11:23 33.681168 -117.866352 118 60ft 0kts
09-May-20 11:24 33.681168 -117.866352 118 60ft 0kts
09-May-20 11:25 33.681168 -117.866352 118 60ft 0kts
09-May-20 11:26 33.680817 -117.865823 144 60ft 14kts
09-May-20 11:27 33.664202 -117.875808 196 566ft 88kts
09-May-20 11:28 33.638472 -117.878983 185 1408ft 94kts
09-May-20 11:29 33.616616 -117.864348 131 2179ft 104kts
09-May-20 11:30 33.593715 -117.846462 161 2883ft 102kts
09-May-20 11:31 33.577264 -117.818369 129 3583ft 103kts
09-May-20 11:32 33.559098 -117.792143 135 4284ft 100kts
09-May-20 11:33 33.539999 -117.768168 138 4967ft 100kts
09-May-20 11:34 33.516886 -117.740578 138 5001ft 127kts
09-May-20 11:35 33.491162 -117.710222 138 5000ft 130kts
09-May-20 11:36 33.465207 -117.679775 138 5000ft 130kts
09-May-20 11:37 33.439126 -117.649258 138 5000ft 131kts
09-May-20 11:38 33.413010 -117.618703 138 5000ft 131kts
09-May-20 11:39 33.386747 -117.588009 138 5000ft 132kts
09-May-20 11:40 33.361601 -117.558641 139 4997ft 122kts
09-May-20 11:42 33.338309 -117.531474 139 4997ft 112kts
09-May-20 11:43 33.316099 -117.505577 138 4996ft 111kts
09-May-20 11:44 33.293878 -117.479677 138 4996ft 112kts
09-May-20 11:45 33.270939 -117.452957 138 4995ft 116kts
09-May-20 11:46 33.247753 -117.425970 138 4995ft 116kts
09-May-20 11:47 33.238311 -117.390348 91 4995ft 119kts
09-May-20 11:48 33.237445 -117.350372 91 4994ft 121kts
09-May-20 11:49 33.236769 -117.315836 92 4993ft 121kts
09-May-20 11:50 33.236238 -117.274411 92 4995ft 126kts
09-May-20 11:51 33.236018 -117.232306 92 4996ft 126kts
09-May-20 11:52 33.236146 -117.190251 91 4997ft 126kts
09-May-20 11:53 33.236626 -117.148270 91 4998ft 125kts
09-May-20 11:54 33.237421 -117.106570 91 4999ft 125kts
09-May-20 11:55 33.237970 -117.064785 91 4999ft 126kts
09-May-20 11:56 33.218704 -117.039340 171 4557ft 115kts
09-May-20 11:57 33.187341 -117.031624 171 4000ft 107kts
09-May-20 11:58 33.166281 -117.046844 235 3998ft 91kts
09-May-20 11:58 33.161040 -117.075556 258 3320ft 103kts
09-May-20 11:59 33.156707 -117.103315 256 3073ft 91kts
09-May-20 12:01 33.150967 -117.139426 257 2312ft 91kts
09-May-20 12:02 33.146394 -117.167627 257 2182ft 89kts
09-May-20 12:02 33.142600 -117.191291 257 1791ft 87kts
09-May-20 12:03 33.137834 -117.220840 257 1278ft 92kts
09-May-20 12:04 33.133223 -117.249440 257 764ft 78kts
09-May-20 12:05 33.129823 -117.270224 257 383ft 58kts
09-May-20 12:06 33.128982 -117.280196 317 308ft 0kts
09-May-20 12:07 33.129011 -117.280224 325 308ft 1kts
09-May-20 12:08 33.129357 -117.279600 151 306ft 0kts
09-May-20 12:09 33.129358 -117.279600 151 306ft 0kts
09-May-20 12:10 33.129358 -117.279600 151 306ft 0kts
09-May-20 12:11 33.129358 -117.279600 151 306ft 0kts
09-May-20 12:12 33.675435 -117.871334 40 60ft 0kts
09-May-20 12:13 33.675435 -117.871334 40 60ft 0kts
09-May-20 12:14 33.675435 -117.871334 40 60ft 0kts
09-May-20 12:15 33.675435 -117.871334 40 60ft 0kts
09-May-20 12:16 33.675435 -117.871334 40 60ft 0kts
09-May-20 12:17 33.675435 -117.871334 40 60ft 0kts
09-May-20 12:18 33.675435 -117.871334 40 60ft 0kts
09-May-20 12:19 33.675435 -117.871334 40 60ft 0kts
09-May-20 12:20 33.675435 -117.871334 40 60ft 0kts

Navigation Log

Ident Type
Flight plan parsing failed, navigation log unavailable